Coleraine, United Kingdom
Current Conditions -  °F | °C
As of 8:50 AM on Wednesday 22 Oct 2014 (Local Time) from EGAE Reporting Station
Light Rain Light Rain  
Wind Chill: 11°   Ceiling: 3800
Heat Index: 11°   Visibility: 6mi
Dew Point: 10°   Wind: 17mph
Humidity: 94%   Direction: 230°SW
Pressure: 30.09"   Gusts: 39mph
Location:  55.13°N, 6.67°W
Report Text: EGAE 220750Z 23015G34KT 210V320 9000 -RA SCT015 OVC038 11/10 Q1019
Loading
Personal Weather Stations






























Interactive Weather Map
Tropical Storm Tracking
New forecast layout! Learn more

10-Day Weather Forecast

Advertisements
Track Severe Weather on mobile